Time;durP1;ratioP1;P1;durP2;ratioP2;P2;SDS_P1;SDS_P2;PMS_P1;PMS_P2;Temp;Humidity;BMP_temperature;BMP_pressure;BME280_temperature;BME280_humidity;BME280_pressure;Samples;Min_cycle;Max_cycle;Signal;HPM_P1;HPM_P2
2022/06/23 00:01:57;;;;;;;6.30;3.00;;;22.10;96.20;;;;;;5072133;28;20041;-68
2022/06/23 00:04:27;;;;;;;7.75;3.10;;;22.10;95.40;;;;;;5055361;28;20054;-68
2022/06/23 00:07:17;;;;;;;8.05;3.30;;;21.90;96.10;;;;;;5059112;28;20032;-68
2022/06/23 00:09:45;;;;;;;10.73;3.67;;;21.80;96.10;;;;;;5072048;28;20515;-68
2022/06/23 00:12:44;;;;;;;13.15;3.80;;;21.90;95.90;;;;;;5072491;28;20066;-70
2022/06/23 00:15:09;;;;;;;8.18;3.47;;;22.00;96.50;;;;;;5038891;28;20025;-68
2022/06/23 00:17:42;;;;;;;7.15;3.33;;;22.10;96.20;;;;;;5073493;28;20056;-68
2022/06/23 00:20:15;;;;;;;7.72;3.55;;;22.20;96.10;;;;;;5075997;28;20036;-68
2022/06/23 00:22:45;;;;;;;8.02;3.97;;;22.40;96.00;;;;;;5076327;28;20077;-68
2022/06/23 00:25:26;;;;;;;6.05;2.90;;;22.50;95.80;;;;;;5075919;28;20020;-68
2022/06/23 00:27:52;;;;;;;12.27;3.63;;;22.50;95.50;;;;;;5058270;28;20451;-68
2022/06/23 00:30:28;;;;;;;7.38;3.30;;;22.60;95.40;;;;;;5057549;28;20021;-68
2022/06/23 00:32:53;;;;;;;9.77;3.30;;;22.50;95.10;;;;;;5075896;28;20085;-67
2022/06/23 00:35:20;;;;;;;7.47;3.00;;;22.50;94.70;;;;;;5075953;28;20021;-68
2022/06/23 00:37:51;;;;;;;11.32;3.33;;;22.60;94.40;;;;;;5075579;28;20028;-69
2022/06/23 00:40:23;;;;;;;14.02;4.38;;;22.30;95.10;;;;;;5075717;28;20067;-67
2022/06/23 00:42:51;;;;;;;11.40;3.85;;;22.30;95.10;;;;;;5075891;28;20040;-68
2022/06/23 00:45:33;;;;;;;10.98;3.97;;;22.20;95.90;;;;;;5091138;28;20396;-68
2022/06/23 00:48:08;;;;;;;6.70;3.67;;;21.80;96.90;;;;;;5061518;28;20025;-67
2022/06/23 00:50:48;;;;;;;6.40;3.47;;;21.80;96.70;;;;;;5091200;28;20443;-68
2022/06/23 00:53:32;;;;;;;12.30;3.92;;;22.00;96.80;;;;;;5075904;28;20047;-68
2022/06/23 00:56:15;;;;;;;8.27;3.50;;;21.90;96.90;;;;;;5091200;28;20137;-68
2022/06/23 00:59:00;;;;;;;10.32;3.55;;;22.00;96.60;;;;;;5075369;28;20480;-68
2022/06/23 01:01:35;;;;;;;9.15;3.85;;;22.00;96.40;;;;;;5075240;28;20098;-69
2022/06/23 01:04:22;;;;;;;7.85;3.60;;;22.10;96.30;;;;;;5075329;28;20064;-68
2022/06/23 01:06:52;;;;;;;9.18;3.58;;;21.80;96.80;;;;;;5075079;28;20021;-68
2022/06/23 01:09:23;;;;;;;8.82;3.88;;;21.80;96.50;;;;;;5075099;28;20040;-68
2022/06/23 01:12:11;;;;;;;7.20;3.70;;;21.70;97.30;;;;;;5075130;28;20158;-68
2022/06/23 01:15:02;;;;;;;10.63;4.07;;;21.80;96.80;;;;;;5044622;28;20485;-68
2022/06/23 01:17:34;;;;;;;13.85;3.88;;;21.40;97.60;;;;;;5075213;28;20021;-68
2022/06/23 01:20:05;;;;;;;7.65;3.83;;;21.20;99.00;;;;;;5074902;28;20043;-68
2022/06/23 01:22:49;;;;;;;8.18;4.45;;;21.50;98.20;;;;;;5074954;28;20502;-68
2022/06/23 01:25:37;;;;;;;8.68;3.75;;;21.50;98.00;;;;;;5074830;28;20027;-68
2022/06/23 01:28:22;;;;;;;7.00;3.63;;;21.60;98.10;;;;;;5074589;28;20469;-68
2022/06/23 01:30:57;;;;;;;15.98;4.03;;;21.70;97.40;;;;;;5074399;28;20453;-68
2022/06/23 01:33:50;;;;;;;9.23;3.00;;;21.50;97.30;;;;;;5075242;28;20390;-68
2022/06/23 01:36:19;;;;;;;;;;;21.40;97.20;;;;;;5073162;28;20040;-68
2022/06/23 01:39:03;;;;;;;6.30;2.90;;;21.90;96.00;;;;;;5075000;28;19987;-69
2022/06/23 01:41:47;;;;;;;7.03;3.17;;;21.90;95.60;;;;;;5061906;28;20041;-68
2022/06/23 01:44:19;;;;;;;4.88;2.97;;;21.90;95.80;;;;;;5072480;28;20107;-68
2022/06/23 01:46:49;;;;;;;6.38;2.97;;;21.90;95.20;;;;;;5074032;28;20116;-68
2022/06/23 01:49:26;;;;;;;9.95;3.28;;;21.70;96.10;;;;;;5077981;28;20028;-68
2022/06/23 01:52:10;;;;;;;10.10;3.97;;;21.70;95.80;;;;;;5073153;28;20589;-68
2022/06/23 01:54:38;;;;;;;9.27;3.50;;;21.70;95.80;;;;;;5080515;28;20028;-69
2022/06/23 01:57:22;;;;;;;9.80;3.50;;;21.50;96.20;;;;;;5094293;28;20024;-68
2022/06/23 01:59:55;;;;;;;8.90;3.20;;;21.30;96.60;;;;;;5094409;28;20028;-68
2022/06/23 02:02:47;;;;;;;6.78;3.33;;;21.00;97.90;;;;;;5082801;28;20037;-68
2022/06/23 02:05:28;;;;;;;10.73;3.55;;;21.30;96.80;;;;;;5079225;28;20383;-68
2022/06/23 02:08:03;;;;;;;12.02;3.47;;;21.50;96.60;;;;;;5094013;28;20046;-68
2022/06/23 02:10:44;;;;;;;9.00;3.20;;;21.60;96.40;;;;;;5094315;28;20039;-68
2022/06/23 02:13:13;;;;;;;9.65;3.47;;;21.50;96.40;;;;;;5094172;28;20115;-68
2022/06/23 02:15:57;;;;;;;8.23;3.03;;;21.50;96.90;;;;;;5094221;28;20043;-69
2022/06/23 02:18:26;;;;;;;6.10;3.22;;;21.60;96.10;;;;;;5072881;28;20153;-69
2022/06/23 02:20:57;;;;;;;8.73;3.72;;;21.80;95.90;;;;;;5083365;28;20039;-68
2022/06/23 02:23:43;;;;;;;11.18;3.40;;;21.60;95.90;;;;;;5094127;28;20594;-68
2022/06/23 02:26:22;;;;;;;6.80;3.72;;;21.60;96.20;;;;;;5093769;28;20530;-68
2022/06/23 02:28:57;;;;;;;8.55;3.60;;;21.60;96.20;;;;;;5093882;28;20024;-68
2022/06/23 02:32:10;;;;;;;13.50;3.30;;;22.00;95.20;;;;;;5094081;28;20066;-68
2022/06/23 02:34:54;;;;;;;14.15;4.35;;;21.90;95.20;;;;;;5002789;28;20030;-68
2022/06/23 02:37:59;;;;;;;10.88;3.50;;;21.50;96.10;;;;;;5011696;28;20064;-68
2022/06/23 02:40:42;;;;;;;8.90;3.47;;;21.50;95.90;;;;;;5082843;28;20404;-69
2022/06/23 02:43:10;;;;;;;9.75;3.83;;;21.20;96.60;;;;;;5093882;28;20028;-68
2022/06/23 02:46:22;;;;;;;7.10;3.08;;;21.10;96.90;;;;;;5093001;28;20034;-68
2022/06/23 02:49:08;;;;;;;7.15;3.45;;;20.50;98.90;;;;;;5084346;28;20016;-68
2022/06/23 02:52:03;;;;;;;9.70;3.70;;;20.90;97.80;;;;;;5093629;28;20032;-68
2022/06/23 02:54:29;;;;;;;7.07;4.28;;;21.30;96.70;;;;;;5078086;28;20052;-68
2022/06/23 02:57:25;;;;;;;11.68;3.28;;;21.30;96.40;;;;;;5093161;28;20067;-68
2022/06/23 02:59:55;;;;;;;10.68;2.80;;;21.30;96.20;;;;;;5068363;28;20541;-69
2022/06/23 03:02:48;;;;;;;7.50;3.75;;;21.30;96.10;;;;;;5093323;28;20064;-68
2022/06/23 03:05:17;;;;;;;8.95;4.20;;;21.40;96.10;;;;;;5085275;28;20036;-68
2022/06/23 03:07:57;;;;;;;10.68;3.72;;;21.00;97.00;;;;;;5093065;28;20170;-70
2022/06/23 03:10:29;;;;;;;6.00;4.00;;;21.20;96.30;;;;;;5093182;28;20044;-68
2022/06/23 03:13:07;;;;;;;7.25;3.33;;;21.30;96.10;;;;;;5093183;28;20517;-68
2022/06/23 03:15:56;;;;;;;8.45;2.95;;;20.90;97.00;;;;;;5093240;28;20052;-68
2022/06/23 03:18:28;;;;;;;7.10;3.72;;;20.70;97.40;;;;;;5093018;28;20381;-68
2022/06/23 03:20:59;;;;;;;10.52;3.95;;;20.60;97.80;;;;;;5093145;28;20097;-68
2022/06/23 03:23:31;;;;;;;7.25;3.88;;;20.60;97.70;;;;;;5093082;28;20052;-68
2022/06/23 03:26:07;;;;;;;5.13;3.42;;;20.50;97.80;;;;;;5092719;28;20023;-68
2022/06/23 03:28:48;;;;;;;11.13;3.88;;;20.10;99.10;;;;;;5092298;28;20031;-68
2022/06/23 03:31:16;;;;;;;16.15;3.78;;;20.10;98.90;;;;;;5092601;28;20035;-69
2022/06/23 03:33:51;;;;;;;5.80;3.65;;;20.20;98.60;;;;;;5064923;28;20016;-68
2022/06/23 03:36:33;;;;;;;10.40;3.40;;;19.90;99.60;;;;;;5092758;28;20059;-68
2022/06/23 03:42:24;;;;;;;8.65;3.60;;;19.80;99.90;;;;;;5092553;28;20039;-68
2022/06/23 03:45:08;;;;;;;13.75;4.03;;;19.70;99.90;;;;;;5093071;28;20039;-69
2022/06/23 03:47:57;;;;;;;9.95;3.55;;;20.00;99.80;;;;;;5076122;28;20069;-68
2022/06/23 03:50:53;;;;;;;9.13;3.83;;;20.30;99.10;;;;;;5092741;28;20426;-68
2022/06/23 03:53:38;;;;;;;8.23;3.92;;;20.20;98.90;;;;;;5085020;28;20056;-68
2022/06/23 03:56:09;;;;;;;7.15;3.60;;;19.90;99.90;;;;;;5095335;28;20025;-68
2022/06/23 03:58:44;;;;;;;10.32;4.03;;;19.50;99.90;;;;;;5096732;28;20027;-68
2022/06/23 04:01:16;;;;;;;6.47;3.65;;;19.70;99.90;;;;;;5096969;28;20488;-68
2022/06/23 04:03:57;;;;;;;11.18;3.80;;;19.70;99.90;;;;;;5091715;28;20025;-69
2022/06/23 04:06:38;;;;;;;10.87;3.97;;;19.80;99.90;;;;;;5095976;28;20035;-68
2022/06/23 04:09:27;;;;;;;12.73;4.32;;;20.10;99.90;;;;;;5096331;28;20031;-69
2022/06/23 04:12:05;;;;;;;8.18;4.25;;;20.40;99.60;;;;;;5073828;28;20035;-68
2022/06/23 04:14:44;;;;;;;6.93;4.10;;;20.20;99.90;;;;;;5096383;28;20067;-68
2022/06/23 04:17:22;;;;;;;16.00;4.30;;;20.00;99.90;;;;;;5096669;28;20032;-68
2022/06/23 04:19:56;;;;;;;17.20;6.05;;;19.90;99.90;;;;;;5096235;28;20020;-68
2022/06/23 04:22:41;;;;;;;8.77;4.32;;;20.00;99.90;;;;;;5096306;28;20110;-68
2022/06/23 04:25:12;;;;;;;15.43;4.22;;;20.20;99.90;;;;;;5096280;28;20103;-69
2022/06/23 04:27:48;;;;;;;11.43;4.50;;;20.30;99.90;;;;;;5096370;28;20032;-68
2022/06/23 04:30:27;;;;;;;14.55;4.43;;;20.20;99.90;;;;;;5096128;28;20032;-68
2022/06/23 04:32:55;;;;;;;13.75;4.35;;;20.50;99.70;;;;;;5096401;28;20028;-68
2022/06/23 04:35:26;;;;;;;9.13;4.20;;;20.50;99.80;;;;;;5096103;28;20062;-68
2022/06/23 04:38:17;;;;;;;14.07;4.70;;;20.20;99.90;;;;;;5095606;28;20103;-68
2022/06/23 04:40:45;;;;;;;11.55;4.40;;;20.20;99.90;;;;;;5071989;28;20090;-68
2022/06/23 04:43:29;;;;;;;11.45;4.25;;;20.20;99.90;;;;;;5096087;28;20107;-68
2022/06/23 04:46:08;;;;;;;18.20;4.47;;;20.20;99.90;;;;;;5094404;28;20067;-68
2022/06/23 04:48:57;;;;;;;9.40;4.72;;;20.70;99.90;;;;;;5092304;28;20031;-68
2022/06/23 04:51:36;;;;;;;9.73;4.47;;;20.70;99.90;;;;;;5095871;28;20388;-70
2022/06/23 04:54:18;;;;;;;10.80;4.15;;;20.30;99.90;;;;;;5081486;28;20058;-69
2022/06/23 04:57:01;;;;;;;17.95;4.70;;;20.20;99.90;;;;;;5095887;28;20120;-68
2022/06/23 04:59:42;;;;;;;11.00;4.65;;;20.20;99.90;;;;;;5095670;28;20028;-68
2022/06/23 05:02:16;;;;;;;13.77;5.18;;;20.10;99.90;;;;;;5095983;28;20070;-70
2022/06/23 05:04:45;;;;;;;10.38;4.38;;;20.20;99.90;;;;;;5085119;28;20024;-68
2022/06/23 05:07:29;;;;;;;12.35;4.50;;;20.20;99.90;;;;;;5077518;28;20464;-68
2022/06/23 05:10:00;;;;;;;10.73;4.63;;;20.20;99.90;;;;;;5095377;28;20067;-68
2022/06/23 05:12:34;;;;;;;11.95;4.28;;;20.40;99.90;;;;;;5095553;28;20094;-70
2022/06/23 05:15:26;;;;;;;14.02;5.97;;;20.50;99.90;;;;;;5095264;28;20032;-69
2022/06/23 05:17:57;;;;;;;11.70;4.75;;;20.80;99.80;;;;;;5095206;28;20465;-69
2022/06/23 05:20:39;;;;;;;13.32;4.53;;;20.90;99.20;;;;;;5095208;28;20417;-68
2022/06/23 05:23:06;;;;;;;13.77;4.93;;;20.90;99.30;;;;;;5095166;28;20028;-68
2022/06/23 05:25:46;;;;;;;10.25;4.35;;;21.10;99.10;;;;;;5095184;28;20380;-69
2022/06/23 05:28:32;;;;;;;15.32;4.32;;;21.20;98.50;;;;;;5095180;28;20078;-69
2022/06/23 05:31:01;;;;;;;17.45;4.47;;;21.20;98.60;;;;;;5095142;28;20035;-69
2022/06/23 05:33:33;;;;;;;10.13;4.50;;;21.10;98.90;;;;;;5095178;28;20024;-68
2022/06/23 05:36:03;;;;;;;17.73;4.65;;;21.30;98.50;;;;;;5094668;28;20480;-69
2022/06/23 05:38:51;;;;;;;10.13;3.80;;;21.30;98.80;;;;;;5094993;28;20061;-69
2022/06/23 05:41:18;;;;;;;12.25;4.22;;;21.30;98.80;;;;;;5094731;28;20392;-68
2022/06/23 05:43:47;;;;;;;14.35;4.55;;;21.40;99.00;;;;;;5094948;28;20024;-69
2022/06/23 05:46:22;;;;;;;10.05;4.80;;;21.50;98.40;;;;;;5090731;28;20016;-69
2022/06/23 05:49:30;;;;;;;15.52;4.45;;;21.60;97.50;;;;;;5092997;28;20111;-68
2022/06/23 05:52:02;;;;;;;12.65;4.47;;;21.60;97.30;;;;;;5081222;28;20036;-69
2022/06/23 05:54:30;;;;;;;19.65;4.88;;;21.80;97.50;;;;;;5080317;28;20046;-69
2022/06/23 05:57:03;;;;;;;10.73;4.35;;;21.70;97.80;;;;;;5076119;28;20017;-69
2022/06/23 06:00:00;;;;;;;14.40;4.05;;;21.70;97.70;;;;;;5072105;28;20500;-68
2022/06/23 06:02:29;;;;;;;6.88;3.92;;;21.90;97.70;;;;;;5062044;28;20047;-70
2022/06/23 06:04:58;;;;;;;13.48;5.18;;;22.20;97.30;;;;;;5086669;28;20029;-68
2022/06/23 06:07:33;;;;;;;23.35;5.38;;;22.20;97.20;;;;;;5093553;28;20098;-70
2022/06/23 06:10:03;;;;;;;16.92;4.70;;;22.20;96.80;;;;;;5091738;28;20076;-69
2022/06/23 06:12:41;;;;;;;33.17;5.20;;;22.10;97.20;;;;;;5092525;28;20032;-71
2022/06/23 06:15:33;;;;;;;13.68;4.28;;;21.80;97.40;;;;;;5076852;28;20020;-70
2022/06/23 06:18:28;;;;;;;15.85;4.25;;;21.70;98.20;;;;;;5093015;28;20495;-69
2022/06/23 06:20:57;;;;;;;16.85;4.63;;;22.00;98.30;;;;;;5083245;28;20476;-69
2022/06/23 06:23:30;;;;;;;13.55;4.60;;;22.10;98.30;;;;;;5092543;28;20032;-69
2022/06/23 06:25:56;;;;;;;15.68;4.88;;;22.20;98.60;;;;;;5093413;28;20111;-70
2022/06/23 06:28:27;;;;;;;16.05;4.88;;;22.10;99.20;;;;;;5092921;28;20433;-70
2022/06/23 06:31:15;;;;;;;12.77;5.25;;;22.30;98.80;;;;;;5064194;28;20400;-70
2022/06/23 06:33:59;;;;;;;21.58;6.13;;;22.40;98.50;;;;;;5078803;28;20024;-69
2022/06/23 06:36:36;;;;;;;19.35;4.63;;;22.30;99.10;;;;;;5071674;28;20028;-71
2022/06/23 06:39:40;;;;;;;12.73;4.75;;;22.50;99.50;;;;;;5074691;28;20091;-72
2022/06/23 06:42:22;;;;;;;13.93;5.03;;;22.90;99.20;;;;;;5075506;28;20080;-71
2022/06/23 06:44:50;;;;;;;21.10;6.03;;;22.80;99.60;;;;;;5081111;28;20419;-69
2022/06/23 06:47:21;;;;;;;17.92;5.25;;;22.70;99.90;;;;;;5078297;28;20591;-69
2022/06/23 06:49:47;;;;;;;22.17;6.50;;;23.00;99.90;;;;;;5076330;28;20021;-69
2022/06/23 06:52:14;;;;;;;24.73;7.03;;;23.10;99.90;;;;;;5075268;28;20028;-69
2022/06/23 06:54:56;;;;;;;24.20;7.20;;;23.10;99.90;;;;;;5080214;28;20055;-70
2022/06/23 06:57:45;;;;;;;25.15;6.90;;;23.20;99.90;;;;;;5092699;28;20063;-69
2022/06/23 07:00:59;;;;;;;16.00;5.97;;;23.30;99.90;;;;;;5091341;28;20028;-69
2022/06/23 07:03:28;;;;;;;17.35;6.13;;;23.50;99.90;;;;;;5067011;28;20497;-70
2022/06/23 07:06:14;;;;;;;22.05;7.03;;;23.50;99.90;;;;;;5089608;28;20102;-71
2022/06/23 07:08:52;;;;;;;14.48;6.00;;;23.50;99.90;;;;;;5092427;28;20039;-69
2022/06/23 07:11:52;;;;;;;22.92;6.30;;;23.60;99.90;;;;;;5092574;28;20043;-70
2022/06/23 07:14:27;;;;;;;15.45;6.38;;;23.30;99.90;;;;;;5081471;28;20066;-70
2022/06/23 07:17:03;;;;;;;16.05;5.63;;;23.60;99.90;;;;;;5090630;28;20077;-73
2022/06/23 07:19:29;;;;;;;17.58;7.03;;;23.50;99.90;;;;;;5059479;28;20037;-70
2022/06/23 07:22:02;;;;;;;16.63;6.20;;;23.70;99.90;;;;;;5072406;28;20032;-68
2022/06/23 07:24:37;;;;;;;18.80;7.10;;;23.80;99.90;;;;;;5083563;28;20380;-69
2022/06/23 07:27:16;;;;;;;13.38;6.78;;;23.90;99.90;;;;;;5071700;28;20043;-70
2022/06/23 07:30:04;;;;;;;11.45;6.30;;;23.80;99.90;;;;;;5072251;28;20372;-69
2022/06/23 07:32:37;;;;;;;19.48;6.85;;;24.10;99.90;;;;;;5044171;28;20024;-69
2022/06/23 07:35:12;;;;;;;14.60;6.15;;;24.10;99.90;;;;;;5072674;28;20054;-71
2022/06/23 07:37:47;;;;;;;18.17;7.50;;;23.70;99.90;;;;;;5063136;28;20385;-71
2022/06/23 07:40:15;;;;;;;21.60;7.28;;;23.70;99.90;;;;;;5072485;28;20140;-69
2022/06/23 07:42:57;;;;;;;19.17;6.78;;;23.70;99.90;;;;;;5072765;28;20045;-70
2022/06/23 07:45:32;;;;;;;22.52;8.15;;;23.50;99.90;;;;;;5072587;28;20362;-68
2022/06/23 07:47:59;;;;;;;16.92;7.68;;;23.60;99.90;;;;;;5072395;28;20037;-70
2022/06/23 07:50:25;;;;;;;15.35;7.95;;;23.80;99.90;;;;;;5054676;28;20024;-70
2022/06/23 07:52:52;;;;;;;21.63;7.28;;;23.60;99.90;;;;;;5072613;28;20016;-68
2022/06/23 07:55:28;;;;;;;17.98;8.13;;;23.60;99.90;;;;;;5084845;28;20035;-70
2022/06/23 07:57:54;;;;;;;23.10;7.45;;;23.80;99.90;;;;;;5092595;28;20388;-69
2022/06/23 08:00:20;;;;;;;22.23;7.82;;;23.90;99.90;;;;;;5092424;28;20036;-70
2022/06/23 08:03:01;;;;;;;22.77;8.32;;;23.90;99.90;;;;;;5092527;28;20427;-70
2022/06/23 08:05:39;;;;;;;16.15;8.30;;;24.10;99.90;;;;;;5084648;28;20097;-70
2022/06/23 08:08:10;;;;;;;18.27;7.50;;;24.10;99.90;;;;;;5092284;28;20034;-69
2022/06/23 08:10:36;;;;;;;19.25;7.75;;;24.30;99.90;;;;;;5092784;28;20076;-70
2022/06/23 08:13:14;;;;;;;18.17;8.23;;;24.30;99.90;;;;;;5086473;28;20038;-70
2022/06/23 08:19:01;;;;;;;16.38;8.27;;;24.80;99.90;;;;;;5092782;28;20380;-70
2022/06/23 08:21:31;;;;;;;22.42;8.43;;;24.70;99.90;;;;;;5092415;28;20555;-70
2022/06/23 08:24:08;;;;;;;19.67;7.88;;;24.80;99.90;;;;;;5092460;28;20032;-70
2022/06/23 08:26:39;;;;;;;17.85;7.75;;;24.90;99.90;;;;;;5092645;28;20105;-70
2022/06/23 08:29:10;;;;;;;14.18;6.97;;;25.00;99.90;;;;;;5091871;28;20400;-70
2022/06/23 08:31:38;;;;;;;14.85;7.43;;;24.90;99.90;;;;;;5092463;28;20480;-70
2022/06/23 08:34:04;;;;;;;20.23;7.78;;;24.80;99.90;;;;;;5092285;28;20472;-70
2022/06/23 08:36:52;;;;;;;15.13;7.90;;;25.00;99.90;;;;;;5092346;28;20024;-70
2022/06/23 08:39:25;;;;;;;13.82;8.75;;;25.50;99.90;;;;;;5094666;28;20024;-70
2022/06/23 08:42:19;;;;;;;21.70;7.82;;;25.60;99.90;;;;;;5096178;28;20040;-70
2022/06/23 08:45:09;;;;;;;18.25;7.50;;;26.10;99.90;;;;;;5095726;28;20039;-70
2022/06/23 08:47:36;;;;;;;11.45;6.07;;;25.20;99.90;;;;;;5079633;28;20192;-70
2022/06/23 08:50:28;;;;;;;14.63;7.03;;;25.10;99.90;;;;;;5095908;28;20017;-70
2022/06/23 08:53:22;;;;;;;12.05;6.03;;;25.00;99.90;;;;;;5089496;28;20033;-70
2022/06/23 08:56:07;;;;;;;14.52;7.85;;;25.50;99.90;;;;;;5091772;28;20107;-70
2022/06/23 08:58:39;;;;;;;11.75;6.80;;;25.50;99.90;;;;;;5095625;28;20442;-69
2022/06/23 09:01:28;;;;;;;13.50;7.70;;;25.10;99.90;;;;;;5095429;28;20024;-70
2022/06/23 09:04:20;;;;;;;10.40;6.32;;;25.20;99.90;;;;;;5088790;28;20026;-70
2022/06/23 09:06:57;;;;;;;14.93;6.65;;;25.20;99.90;;;;;;5072776;28;20040;-70
2022/06/23 09:09:41;;;;;;;13.43;7.13;;;25.50;99.90;;;;;;5095082;28;20032;-70
2022/06/23 09:12:16;;;;;;;12.98;6.90;;;25.40;99.90;;;;;;5095354;28;20032;-70
2022/06/23 09:15:06;;;;;;;14.43;7.80;;;25.00;99.90;;;;;;5095201;28;20030;-70
2022/06/23 09:17:59;;;;;;;17.40;7.97;;;25.30;99.90;;;;;;5095465;28;20032;-70
2022/06/23 09:20:47;;;;;;;16.00;7.38;;;25.50;99.90;;;;;;5095366;28;20063;-70
2022/06/23 09:23:41;;;;;;;13.65;5.97;;;25.50;99.90;;;;;;5095124;28;20032;-70
2022/06/23 09:26:23;;;;;;;12.98;6.95;;;26.10;99.90;;;;;;5095169;28;20032;-70
2022/06/23 09:29:03;;;;;;;12.02;6.35;;;25.90;99.90;;;;;;5070752;28;20020;-71
2022/06/23 09:31:58;;;;;;;10.57;6.20;;;26.50;99.90;;;;;;5095013;28;20025;-70
2022/06/23 09:34:47;;;;;;;15.95;6.28;;;26.70;99.90;;;;;;5095036;28;20052;-70
2022/06/23 09:37:34;;;;;;;10.50;5.80;;;26.70;99.90;;;;;;5069061;28;20469;-70
2022/06/23 09:40:35;;;;;;;11.38;6.22;;;27.10;99.90;;;;;;5094665;28;20028;-70
2022/06/23 09:43:28;;;;;;;12.70;5.87;;;26.70;99.90;;;;;;5060621;28;20062;-70
2022/06/23 09:46:09;;;;;;;12.70;6.22;;;26.50;99.90;;;;;;5070383;28;20012;-70
2022/06/23 09:49:02;;;;;;;17.75;6.00;;;26.20;99.90;;;;;;5091548;28;20063;-70
2022/06/23 09:51:46;;;;;;;9.50;5.07;;;26.40;99.90;;;;;;5093628;28;20032;-70
2022/06/23 09:54:17;;;;;;;11.73;5.53;;;27.10;99.90;;;;;;5074378;28;20023;-70
2022/06/23 09:56:54;;;;;;;14.18;5.85;;;27.30;99.90;;;;;;5076429;28;20078;-70
2022/06/23 09:59:38;;;;;;;16.08;6.30;;;26.90;99.90;;;;;;5094380;28;20464;-70
2022/06/23 10:02:31;;;;;;;12.30;6.18;;;26.60;99.90;;;;;;5094448;28;20059;-70
2022/06/23 10:04:56;;;;;;;;;;;26.50;99.90;;;;;;5078369;28;20487;-70
2022/06/23 10:07:37;;;;;;;14.43;6.13;;;26.50;99.90;;;;;;5094228;28;19951;-70
2022/06/23 10:10:42;;;;;;;14.07;5.97;;;27.00;99.90;;;;;;5068929;28;20030;-71
2022/06/23 10:13:13;;;;;;;11.90;5.07;;;27.70;99.90;;;;;;5094367;28;20039;-70
2022/06/23 10:15:51;;;;;;;8.52;5.22;;;28.40;99.90;;;;;;5094204;28;20051;-70
2022/06/23 10:18:41;;;;;;;9.98;4.97;;;27.50;99.90;;;;;;5094005;28;20024;-70
2022/06/23 10:21:41;;;;;;;10.93;5.68;;;27.50;99.90;;;;;;5094107;28;20040;-70
2022/06/23 10:24:34;;;;;;;13.05;5.15;;;27.30;99.90;;;;;;5094203;28;20078;-71
2022/06/23 10:27:36;;;;;;;8.77;5.00;;;26.90;99.90;;;;;;5067986;28;20059;-70
2022/06/23 10:30:12;;;;;;;13.25;5.28;;;27.00;99.90;;;;;;5084408;28;20039;-70
2022/06/23 10:33:03;;;;;;;13.20;5.38;;;26.80;99.90;;;;;;5075821;28;20118;-69
2022/06/23 10:35:51;;;;;;;10.82;5.50;;;26.90;99.90;;;;;;5093876;28;20468;-71
2022/06/23 10:38:22;;;;;;;11.95;5.18;;;27.60;99.90;;;;;;5093630;28;20036;-70
2022/06/23 10:41:33;;;;;;;13.27;5.97;;;28.10;99.90;;;;;;5093583;28;20051;-71
2022/06/23 10:44:20;;;;;;;12.18;5.38;;;28.30;99.90;;;;;;5056574;28;20051;-70
2022/06/23 10:47:02;;;;;;;10.57;5.10;;;27.90;99.90;;;;;;5086632;28;20472;-71
2022/06/23 10:49:58;;;;;;;11.87;5.47;;;27.80;99.90;;;;;;5093737;28;20177;-70
2022/06/23 10:52:49;;;;;;;14.50;4.97;;;28.40;99.90;;;;;;5063484;28;20111;-70
2022/06/23 10:55:30;;;;;;;14.48;5.07;;;28.80;99.90;;;;;;5084690;28;20484;-71
2022/06/23 10:58:10;;;;;;;11.88;4.95;;;28.80;99.90;;;;;;5093534;28;20594;-70
2022/06/23 11:00:59;;;;;;;8.60;4.57;;;28.30;99.90;;;;;;5093369;28;20028;-70
2022/06/23 11:03:28;;;;;;;9.50;4.40;;;27.70;99.90;;;;;;5068109;28;20019;-70
2022/06/23 11:06:11;;;;;;;12.27;4.68;;;27.80;99.90;;;;;;5088397;28;20028;-70
2022/06/23 11:09:09;;;;;;;10.93;4.45;;;27.70;99.90;;;;;;5092679;28;20028;-70
2022/06/23 11:11:53;;;;;;;10.68;4.55;;;28.00;99.90;;;;;;5059093;28;20063;-70
2022/06/23 11:14:32;;;;;;;16.00;4.78;;;28.80;99.50;;;;;;5093037;28;20533;-70
2022/06/23 11:17:12;;;;;;;7.72;4.18;;;28.80;99.50;;;;;;5093036;28;20028;-71
2022/06/23 11:19:59;;;;;;;9.03;4.37;;;28.60;99.10;;;;;;5058049;28;20044;-74
2022/06/23 11:22:36;;;;;;;7.10;4.28;;;28.40;99.70;;;;;;5072860;28;20036;-71
2022/06/23 11:25:17;;;;;;;9.30;4.25;;;28.50;99.90;;;;;;5072448;28;20093;-71
2022/06/23 11:28:08;;;;;;;9.90;4.47;;;28.60;99.40;;;;;;5072484;28;20035;-72
2022/06/23 11:31:04;;;;;;;10.32;4.10;;;28.90;98.70;;;;;;5072743;28;20036;-71
2022/06/23 11:33:59;;;;;;;12.93;4.50;;;28.90;98.60;;;;;;5072507;28;20021;-67
2022/06/23 11:36:34;;;;;;;8.63;3.83;;;28.60;99.00;;;;;;5072589;28;20070;-71
2022/06/23 11:39:30;;;;;;;10.63;4.20;;;29.00;98.70;;;;;;5072054;28;20104;-71
2022/06/23 11:42:23;;;;;;;12.45;4.03;;;29.20;98.50;;;;;;5087964;28;20129;-71
2022/06/23 11:45:09;;;;;;;10.35;3.97;;;29.10;98.50;;;;;;5072203;28;20036;-71
2022/06/23 11:47:59;;;;;;;12.98;3.90;;;29.50;98.50;;;;;;5072120;28;20028;-70
2022/06/23 11:50:35;;;;;;;10.20;3.95;;;29.80;97.50;;;;;;5054708;28;20473;-70
2022/06/23 11:53:32;;;;;;;13.75;4.25;;;29.70;97.40;;;;;;5072069;28;20029;-71
2022/06/23 11:56:24;;;;;;;11.00;3.40;;;30.20;96.70;;;;;;5090182;28;20050;-71
2022/06/23 11:59:07;;;;;;;9.05;3.75;;;29.90;96.30;;;;;;5063549;28;20040;-70
2022/06/23 12:01:34;;;;;;;12.02;4.80;;;29.80;96.60;;;;;;5067783;28;20131;-71
2022/06/23 12:04:33;;;;;;;9.43;3.78;;;29.50;96.90;;;;;;5084919;28;20108;-71
2022/06/23 12:07:18;;;;;;;12.95;3.80;;;29.90;96.90;;;;;;5060630;28;20040;-70
2022/06/23 12:10:12;;;;;;;8.75;4.10;;;29.70;96.60;;;;;;5087126;28;20065;-70
2022/06/23 12:12:40;;;;;;;10.93;3.72;;;29.80;97.10;;;;;;5088439;28;20041;-70
2022/06/23 12:15:08;;;;;;;17.83;3.72;;;30.20;96.80;;;;;;5083482;28;20058;-71
2022/06/23 12:17:39;;;;;;;11.88;3.75;;;29.90;96.90;;;;;;5083583;28;20465;-70
2022/06/23 12:20:11;;;;;;;;;;;29.90;97.10;;;;;;5058289;28;20481;-70
2022/06/23 12:22:49;;;;;;;;;;;30.10;97.20;;;;;;5086992;28;20061;-71
2022/06/23 12:25:30;;;;;;;8.82;3.45;;;30.50;96.70;;;;;;5081324;28;20061;-70
2022/06/23 12:28:15;;;;;;;7.90;3.70;;;30.80;96.00;;;;;;5074864;28;20028;-70
2022/06/23 12:30:53;;;;;;;7.03;3.30;;;30.30;95.90;;;;;;5059665;28;20512;-70
2022/06/23 12:33:39;;;;;;;12.45;3.92;;;30.60;96.00;;;;;;5075609;28;20038;-70
2022/06/23 12:36:20;;;;;;;11.90;3.05;;;29.80;95.70;;;;;;5087434;28;20063;-69
2022/06/23 12:38:52;;;;;;;8.63;3.90;;;30.50;95.60;;;;;;5081340;28;20112;-71
2022/06/23 12:41:29;;;;;;;11.65;3.28;;;30.60;95.10;;;;;;5079349;28;20045;-71
2022/06/23 12:44:14;;;;;;;12.70;3.10;;;30.40;94.90;;;;;;5066928;28;20372;-69
2022/06/23 12:47:08;;;;;;;7.85;2.75;;;30.80;94.90;;;;;;5083821;28;20454;-70
2022/06/23 12:49:44;;;;;;;10.88;3.50;;;30.70;94.30;;;;;;5085152;28;20070;-69
2022/06/23 12:52:16;;;;;;;8.38;2.85;;;30.70;93.80;;;;;;5075551;28;20025;-69
2022/06/23 12:55:09;;;;;;;7.13;2.40;;;29.80;94.30;;;;;;5081322;28;20021;-69
2022/06/23 12:57:51;;;;;;;13.90;3.15;;;30.30;94.60;;;;;;5094009;28;20032;-69
2022/06/23 13:00:46;;;;;;;8.48;3.28;;;30.10;95.00;;;;;;5076878;28;20095;-69
2022/06/23 13:03:37;;;;;;;8.82;3.33;;;30.60;94.40;;;;;;5088897;28;20044;-69
2022/06/23 13:06:34;;;;;;;6.50;3.15;;;30.40;94.70;;;;;;5091712;28;20031;-70
2022/06/23 13:09:03;;;;;;;9.13;2.58;;;30.60;94.30;;;;;;5095446;28;20484;-70
2022/06/23 13:11:54;;;;;;;8.10;2.65;;;30.80;94.20;;;;;;5095358;28;20032;-71
2022/06/23 13:14:24;;;;;;;10.13;2.60;;;30.70;93.60;;;;;;5095436;28;20393;-71
2022/06/23 13:16:59;;;;;;;12.75;2.85;;;31.10;93.80;;;;;;5095690;28;20034;-70
2022/06/23 13:19:54;;;;;;;7.88;2.72;;;30.90;93.70;;;;;;5094828;28;20027;-70
2022/06/23 13:22:20;;;;;;;9.18;2.45;;;31.00;93.30;;;;;;5095258;28;20047;-69
2022/06/23 13:24:46;;;;;;;9.40;2.53;;;30.70;93.20;;;;;;5093569;28;20380;-70
2022/06/23 13:27:19;;;;;;;9.77;3.13;;;31.10;93.70;;;;;;5086053;28;20103;-70
2022/06/23 13:29:58;;;;;;;8.88;3.08;;;31.10;93.30;;;;;;5079384;28;20159;-69
2022/06/23 13:32:45;;;;;;;7.50;3.13;;;31.10;93.40;;;;;;5095110;28;20088;-70
2022/06/23 13:35:35;;;;;;;8.30;2.90;;;31.00;93.20;;;;;;5094765;28;20051;-70
2022/06/23 13:38:22;;;;;;;10.57;2.95;;;31.40;93.10;;;;;;5094930;28;20024;-70
2022/06/23 13:40:54;;;;;;;5.85;2.67;;;31.20;93.10;;;;;;5072025;28;20480;-70
2022/06/23 13:43:38;;;;;;;7.93;2.72;;;31.50;93.40;;;;;;5094867;28;20038;-70
2022/06/23 13:46:30;;;;;;;7.88;2.80;;;31.20;92.90;;;;;;5092008;28;20024;-70
2022/06/23 13:49:06;;;;;;;5.75;2.80;;;31.80;92.80;;;;;;5094128;28;20087;-69
2022/06/23 13:51:50;;;;;;;11.40;2.70;;;31.60;92.00;;;;;;5094796;28;20024;-70
2022/06/23 13:54:22;;;;;;;8.15;2.97;;;31.70;92.40;;;;;;5094639;28;20042;-70